This is the latest recevied weather packets stored in our database for station/object IU2EVW-13. If no packets are shown the sender has not sent any weather packets the latest 10 day(s).
| Time | Temp. | Humidity | Pressure | Rain* | Wind** | Luminosity | Snow |
|---|---|---|---|---|---|---|---|
| 1788024187 | 26.67° C | 44% | 1016.1 hPa | - | - | - | - |
| 1788022986 | 25.56° C | 47% | 1016.2 hPa | - | - | - | - |
| 1788021785 | 30° C | 37% | 1016.1 hPa | - | - | - | - |
| 1788020584 | 30.56° C | 37% | 1016 hPa | - | - | - | - |
| 1788019382 | 31.11° C | 36% | 1015.9 hPa | - | - | - | - |
| 1788018181 | 32.22° C | 33% | 1015.9 hPa | - | - | - | - |
| 1788016980 | 31.11° C | 36% | 1016 hPa | - | - | - | - |
| 1788015778 | 28.33° C | 39% | 1016.2 hPa | - | - | - | - |
| 1788014577 | 32.22° C | 35% | 1016.1 hPa | - | - | - | - |
| 1788013376 | 30° C | 41% | 1016.1 hPa | - | - | - | - |
| 1788012175 | 29.44° C | 40% | 1016.3 hPa | - | - | - | - |
| 1788010973 | 27.78° C | 45% | 1016.5 hPa | - | - | - | - |
| 1788009772 | 27.22° C | 44% | 1016.6 hPa | - | - | - | - |
| 1788008571 | 27.78° C | 46% | 1016.7 hPa | - | - | - | - |
| 1788007369 | 26.67° C | 44% | 1016.8 hPa | - | - | - | - |
| 1788006168 | 27.22° C | 43% | 1016.7 hPa | - | - | - | - |
| 1788004967 | 26.11° C | 45% | 1016.9 hPa | - | - | - | - |
| 1788003765 | 25.56° C | 44% | 1017 hPa | - | - | - | - |
| 1788002563 | 25.56° C | 46% | 1017.2 hPa | - | - | - | - |
| 1788001362 | 25° C | 52% | 1017.4 hPa | - | - | - | - |
| 1788000160 | 24.44° C | 56% | 1017.6 hPa | - | - | - | - |
| 1787998959 | 23.89° C | 57% | 1017.7 hPa | - | - | - | - |
| 1787997757 | 23.33° C | 58% | 1017.8 hPa | - | - | - | - |
| 1787996556 | 22.22° C | 62% | 1017.9 hPa | - | - | - | - |
| 1787995355 | 21.67° C | 64% | 1018 hPa | - | - | - | - |
* Rain since midnight (hover to see other rain measurements)
** Current wind speed in m/s (hover to see current wind gust speed)